createdAt,value
2023-05-20T00:00:27.700Z,88.87
2023-05-20T00:03:18.360Z,88.58
2023-05-20T00:05:47.683Z,88.54
2023-05-20T00:08:17.058Z,88.56
2023-05-20T00:10:45.820Z,87.93
2023-05-20T00:13:14.826Z,87.53
2023-05-20T00:15:43.579Z,86.95
2023-05-20T00:18:12.704Z,86.50
2023-05-20T00:20:42.848Z,85.63
2023-05-20T00:23:12.125Z,85.24
2023-05-20T00:25:40.917Z,85.49
2023-05-20T00:28:10.008Z,84.80
2023-05-20T00:30:41.896Z,83.91
2023-05-20T00:33:11.251Z,83.63
2023-05-20T00:35:40.443Z,83.57
2023-05-20T00:38:10.864Z,83.81
2023-05-20T00:40:39.614Z,83.76
2023-05-20T00:43:08.711Z,83.81
2023-05-20T00:45:39.124Z,82.98
2023-05-20T00:48:09.815Z,82.96
2023-05-20T00:50:38.833Z,82.69
2023-05-20T00:53:08.500Z,83.09
2023-05-20T00:55:39.300Z,83.05
2023-05-20T00:58:08.549Z,83.18
2023-05-20T01:00:37.615Z,83.01
2023-05-20T01:03:07.462Z,83.37
2023-05-20T01:05:37.166Z,83.13
2023-05-20T01:08:07.939Z,82.94
2023-05-20T01:10:43.303Z,82.94
2023-05-20T01:13:18.704Z,82.78
2023-05-20T01:15:49.792Z,83.29
2023-05-20T01:18:20.638Z,83.39
2023-05-20T01:20:55.122Z,83.91
2023-05-20T01:23:31.897Z,84.38
2023-05-20T01:26:00.712Z,84.32
2023-05-20T01:28:30.364Z,83.58
2023-05-20T01:31:04.267Z,83.34
2023-05-20T01:33:38.623Z,83.35
2023-05-20T01:36:10.079Z,83.49
2023-05-20T01:38:43.005Z,83.37
2023-05-20T01:41:13.932Z,84.15
2023-05-20T01:43:43.843Z,85.04
2023-05-20T01:46:12.744Z,84.07
2023-05-20T01:48:41.880Z,84.14
2023-05-20T01:51:10.816Z,84.16
2023-05-20T01:53:41.264Z,84.86
2023-05-20T01:56:10.957Z,84.95
2023-05-20T01:58:40.093Z,84.90
2023-05-20T02:01:08.980Z,85.22
2023-05-20T02:03:38.036Z,85.07
2023-05-20T02:06:06.926Z,85.20
2023-05-20T02:08:36.140Z,85.18
2023-05-20T02:11:06.418Z,85.44
2023-05-20T02:13:35.549Z,85.37
2023-05-20T02:16:04.470Z,85.57
2023-05-20T02:18:35.347Z,85.60
2023-05-20T02:21:04.519Z,85.84
2023-05-20T02:23:33.716Z,86.53
2023-05-20T02:26:03.498Z,86.85
2023-05-20T02:28:33.966Z,86.75
2023-05-20T02:31:02.739Z,86.40
2023-05-20T02:33:34.353Z,87.02
2023-05-20T02:36:03.251Z,86.66
2023-05-20T02:38:32.551Z,86.47
2023-05-20T02:41:01.283Z,86.05
2023-05-20T02:43:30.352Z,86.32
2023-05-20T02:46:00.676Z,86.51
2023-05-20T02:48:30.038Z,87.03
2023-05-20T02:51:00.944Z,87.22
2023-05-20T02:53:30.002Z,86.59
2023-05-20T02:55:59.726Z,86.31
2023-05-20T02:58:29.535Z,86.57
2023-05-20T03:00:59.852Z,86.27
2023-05-20T03:03:29.590Z,86.08
2023-05-20T03:05:58.370Z,86.28
2023-05-20T03:08:27.424Z,85.44
2023-05-20T03:10:56.746Z,85.04
2023-05-20T03:13:25.857Z,85.62
2023-05-20T03:15:55.103Z,85.88
2023-05-20T03:18:27.393Z,86.25
2023-05-20T03:20:56.390Z,86.22
2023-05-20T03:23:25.653Z,87.00
2023-05-20T03:25:55.133Z,86.73
2023-05-20T03:28:24.158Z,85.85
2023-05-20T03:30:53.023Z,85.74
2023-05-20T03:33:26.176Z,86.23
2023-05-20T03:35:57.089Z,86.24
2023-05-20T03:38:26.397Z,86.23
2023-05-20T03:40:55.324Z,86.19
2023-05-20T03:43:25.350Z,86.21
2023-05-20T03:45:54.137Z,86.09
2023-05-20T03:48:24.330Z,85.79
2023-05-20T03:50:53.113Z,85.48
2023-05-20T03:53:23.951Z,84.60
2023-05-20T03:55:52.854Z,83.74
2023-05-20T03:58:22.398Z,83.70
2023-05-20T04:00:52.119Z,83.30
2023-05-20T04:03:22.830Z,83.08
2023-05-20T04:05:52.222Z,82.60
2023-05-20T04:08:26.006Z,81.90
2023-05-20T04:10:57.835Z,81.78
2023-05-20T04:13:27.092Z,81.34
2023-05-20T04:15:56.055Z,81.60
2023-05-20T04:18:25.964Z,81.77
2023-05-20T04:20:56.628Z,80.84
2023-05-20T04:23:27.475Z,82.11
2023-05-20T04:26:02.403Z,81.99
2023-05-20T04:28:33.345Z,81.25
2023-05-20T04:31:04.562Z,80.85
2023-05-20T04:33:38.124Z,80.33
2023-05-20T04:36:12.186Z,79.13
2023-05-20T04:38:44.785Z,78.51
2023-05-20T04:41:13.750Z,77.82
2023-05-20T04:43:44.104Z,77.96
2023-05-20T04:46:12.921Z,77.62
2023-05-20T04:48:42.217Z,77.53
2023-05-20T04:51:11.130Z,77.10
2023-05-20T04:53:40.493Z,77.49
2023-05-20T04:56:10.766Z,76.58
2023-05-20T04:58:39.827Z,75.99
2023-05-20T05:01:09.145Z,76.11
2023-05-20T05:03:38.223Z,75.73
2023-05-20T05:06:07.161Z,75.17
2023-05-20T05:08:36.223Z,76.32
2023-05-20T05:11:07.292Z,76.17
2023-05-20T05:13:37.875Z,75.90
2023-05-20T05:16:07.573Z,74.45
2023-05-20T05:18:37.033Z,75.08
2023-05-20T05:21:08.488Z,75.13
2023-05-20T05:23:38.668Z,73.11
2023-05-20T05:26:07.639Z,72.44
2023-05-20T05:28:38.081Z,72.26
2023-05-20T05:31:07.332Z,71.73
2023-05-20T05:33:36.592Z,71.23
2023-05-20T05:36:06.607Z,71.68
2023-05-20T05:38:36.789Z,72.60
2023-05-20T05:41:06.026Z,71.66
2023-05-20T05:43:37.982Z,71.27
2023-05-20T05:46:07.654Z,71.61
2023-05-20T05:48:38.118Z,71.76
2023-05-20T05:51:07.275Z,71.75
2023-05-20T05:53:36.609Z,72.24
2023-05-20T05:56:05.991Z,73.08
2023-05-20T05:58:37.155Z,71.53
2023-05-20T06:01:08.279Z,70.21
2023-05-20T06:03:37.543Z,69.36
2023-05-20T06:06:06.367Z,69.22
2023-05-20T06:08:36.577Z,70.02
2023-05-20T06:11:05.917Z,68.52
2023-05-20T06:13:35.370Z,67.25
2023-05-20T06:16:06.600Z,68.93
2023-05-20T06:18:35.891Z,67.55
2023-05-20T06:21:06.796Z,67.08
2023-05-20T06:23:36.025Z,67.52
2023-05-20T06:26:07.698Z,68.83
2023-05-20T06:28:36.848Z,66.59
2023-05-20T06:31:07.382Z,66.26
2023-05-20T06:33:37.729Z,65.07
2023-05-20T06:36:10.317Z,63.79
2023-05-20T06:38:39.611Z,61.82
2023-05-20T06:41:08.823Z,64.14
2023-05-20T06:43:37.916Z,63.69
2023-05-20T06:46:12.808Z,63.27
2023-05-20T06:48:48.643Z,62.42
2023-05-20T06:51:18.783Z,60.83
2023-05-20T06:53:50.491Z,62.28
2023-05-20T06:56:19.227Z,63.35
2023-05-20T06:58:48.282Z,61.89
2023-05-20T07:01:19.282Z,59.12
2023-05-20T07:03:49.811Z,59.57
2023-05-20T07:06:19.236Z,59.04
2023-05-20T07:08:48.358Z,57.79
2023-05-20T07:11:18.170Z,58.36
2023-05-20T07:13:47.373Z,60.17
2023-05-20T07:16:18.012Z,58.16
2023-05-20T07:18:52.119Z,56.44
2023-05-20T07:21:21.032Z,56.86
2023-05-20T07:24:08.983Z,58.31
2023-05-20T07:26:39.806Z,56.42
2023-05-20T07:29:10.296Z,57.60
2023-05-20T07:31:41.978Z,54.91
2023-05-20T07:34:11.102Z,54.44
2023-05-20T07:36:39.975Z,55.16
2023-05-20T07:39:14.221Z,54.40
2023-05-20T07:41:44.389Z,54.41
2023-05-20T07:44:14.790Z,56.09
2023-05-20T07:46:49.754Z,54.58
2023-05-20T07:49:19.392Z,55.28
2023-05-20T07:51:48.470Z,53.61
2023-05-20T07:54:19.487Z,55.36
2023-05-20T07:56:51.840Z,54.92
2023-05-20T07:59:21.635Z,54.19
2023-05-20T08:01:53.621Z,55.37
2023-05-20T08:04:23.874Z,55.84
2023-05-20T08:06:54.580Z,54.36
2023-05-20T08:09:40.864Z,53.06
2023-05-20T08:12:10.344Z,52.83
2023-05-20T08:14:39.754Z,54.21
2023-05-20T08:17:10.315Z,54.34
2023-05-20T08:19:39.636Z,53.27
2023-05-20T08:22:08.892Z,53.16
2023-05-20T08:24:38.149Z,52.10
2023-05-20T08:27:07.755Z,51.50
2023-05-20T08:29:37.360Z,52.22
2023-05-20T08:32:07.645Z,52.81
2023-05-20T08:34:40.085Z,54.01
2023-05-20T08:37:09.063Z,52.79
2023-05-20T08:39:38.370Z,52.67
2023-05-20T08:42:09.424Z,53.64
2023-05-20T08:44:39.316Z,52.14
2023-05-20T08:47:10.170Z,52.33
2023-05-20T08:49:41.196Z,49.76
2023-05-20T08:52:14.768Z,49.55
2023-05-20T08:54:49.401Z,50.43
2023-05-20T08:57:20.519Z,48.99
2023-05-20T08:59:51.213Z,50.82
2023-05-20T09:02:20.174Z,49.75
2023-05-20T09:04:50.895Z,49.54
2023-05-20T09:07:29.163Z,50.14
2023-05-20T09:09:59.912Z,50.78
2023-05-20T09:12:28.961Z,49.49
2023-05-20T09:14:58.157Z,51.18
2023-05-20T09:17:27.029Z,50.05
2023-05-20T09:19:57.736Z,48.48
2023-05-20T09:22:29.061Z,47.90
2023-05-20T09:24:58.606Z,49.38
2023-05-20T09:27:27.603Z,49.81
2023-05-20T09:29:56.999Z,49.22
2023-05-20T09:32:28.434Z,48.01
2023-05-20T09:35:01.453Z,48.53
2023-05-20T09:37:32.009Z,48.81
2023-05-20T09:40:09.954Z,48.08
2023-05-20T09:42:45.371Z,48.61
2023-05-20T09:45:14.538Z,47.91
2023-05-20T09:47:45.017Z,48.04
2023-05-20T09:50:17.376Z,47.42
2023-05-20T09:52:46.213Z,46.22
2023-05-20T09:55:17.484Z,45.34
2023-05-20T09:57:47.653Z,46.66
2023-05-20T10:00:18.361Z,45.37
2023-05-20T10:02:54.815Z,46.64
2023-05-20T10:05:30.469Z,46.20
2023-05-20T10:08:41.563Z,45.82
2023-05-20T10:11:25.685Z,44.07
2023-05-20T10:14:27.841Z,44.84
2023-05-20T10:17:10.232Z,45.07
2023-05-20T10:19:39.597Z,46.33
2023-05-20T10:22:12.149Z,45.32
2023-05-20T10:24:44.169Z,43.65
2023-05-20T10:27:16.198Z,43.52
2023-05-20T10:32:28.955Z,41.71
2023-05-20T16:01:17.800Z,46.47
2023-05-20T16:03:47.151Z,46.83
2023-05-20T16:06:16.221Z,46.39
2023-05-20T16:08:45.696Z,46.32
2023-05-20T16:11:14.426Z,45.83
2023-05-20T16:13:43.460Z,45.71
2023-05-20T16:16:13.493Z,45.65
2023-05-20T16:18:44.068Z,45.84
2023-05-20T16:21:12.836Z,46.19
2023-05-20T16:23:41.877Z,45.08
2023-05-20T16:26:10.738Z,45.03
2023-05-20T16:28:39.815Z,44.97
2023-05-20T16:31:08.592Z,45.30
2023-05-20T16:33:37.855Z,45.36
2023-05-20T16:36:08.526Z,45.97
2023-05-20T16:38:37.510Z,46.04
2023-05-20T16:41:06.648Z,46.47
2023-05-20T16:43:35.790Z,46.98
2023-05-20T16:46:04.664Z,47.51
2023-05-20T16:48:35.063Z,47.45
2023-05-20T16:51:03.748Z,46.50
2023-05-20T16:53:34.085Z,47.17
2023-05-20T16:56:03.044Z,47.54
2023-05-20T16:58:32.074Z,47.48
2023-05-20T17:01:01.000Z,47.12
2023-05-20T17:03:30.272Z,47.28
2023-05-20T17:05:58.984Z,47.12
2023-05-20T17:08:28.066Z,47.22
2023-05-20T17:10:59.693Z,47.39
2023-05-20T17:13:28.656Z,48.41
2023-05-20T17:15:57.451Z,48.78
2023-05-20T17:18:26.487Z,49.70
2023-05-20T17:20:57.774Z,49.07
2023-05-20T17:23:26.917Z,48.36
2023-05-20T17:25:57.112Z,48.20
2023-05-20T17:28:26.187Z,48.07
2023-05-20T17:30:55.182Z,47.82
2023-05-20T17:33:25.025Z,48.12
2023-05-20T17:35:53.775Z,48.08
2023-05-20T17:38:26.189Z,47.95
2023-05-20T17:40:55.466Z,49.21
2023-05-20T17:43:26.204Z,49.20
2023-05-20T17:45:55.030Z,49.41
2023-05-20T17:48:24.227Z,49.16
2023-05-20T17:50:52.984Z,48.44
2023-05-20T17:53:22.479Z,48.48
2023-05-20T17:55:51.409Z,49.05
2023-05-20T17:58:22.316Z,48.80
2023-05-20T18:00:52.961Z,48.60
2023-05-20T18:03:23.092Z,48.26
2023-05-20T18:05:53.268Z,48.57
2023-05-20T18:08:25.452Z,49.57
2023-05-20T18:10:54.340Z,49.83
2023-05-20T18:13:23.352Z,49.50
2023-05-20T18:15:53.580Z,49.13
2023-05-20T18:18:23.657Z,49.56
2023-05-20T18:20:52.608Z,49.01
2023-05-20T18:23:21.681Z,49.53
2023-05-20T18:25:50.708Z,49.75
2023-05-20T18:28:19.709Z,50.21
2023-05-20T18:30:48.525Z,50.74
2023-05-20T18:33:18.992Z,51.22
2023-05-20T18:35:47.894Z,50.90
2023-05-20T18:38:16.867Z,51.83
2023-05-20T18:40:45.601Z,51.88
2023-05-20T18:43:14.896Z,52.10
2023-05-20T18:45:43.990Z,52.62
2023-05-20T18:48:20.186Z,53.02
2023-05-20T18:50:56.292Z,53.25
2023-05-20T18:53:25.443Z,53.53
2023-05-20T18:55:54.333Z,53.89
2023-05-20T18:58:23.635Z,53.91
2023-05-20T19:00:52.447Z,54.14
2023-05-20T19:03:23.336Z,54.43
2023-05-20T19:05:52.239Z,54.30
2023-05-20T19:08:23.298Z,55.02
2023-05-20T19:10:52.076Z,54.92
2023-05-20T19:13:21.770Z,54.99
2023-05-20T19:15:50.667Z,55.14
2023-05-20T19:18:21.497Z,55.60
2023-05-20T19:20:53.460Z,55.73
2023-05-20T19:23:24.179Z,55.68
2023-05-20T19:25:53.077Z,55.99
2023-05-20T19:28:22.110Z,55.83
2023-05-20T19:30:51.067Z,56.21
2023-05-20T19:33:20.138Z,56.77
2023-05-20T19:35:49.077Z,56.76
2023-05-20T19:38:18.093Z,56.85
2023-05-20T19:40:48.437Z,56.75
2023-05-20T19:43:17.493Z,56.20
2023-05-20T19:45:46.283Z,57.04
2023-05-20T19:48:15.378Z,57.63
2023-05-20T19:50:44.257Z,57.35
2023-05-20T19:53:13.369Z,58.02
2023-05-20T19:55:42.273Z,57.64
2023-05-20T19:58:13.272Z,57.44
2023-05-20T20:00:43.043Z,57.55
2023-05-20T20:03:13.788Z,57.38
2023-05-20T20:05:42.616Z,57.91
2023-05-20T20:08:11.714Z,57.85
2023-05-20T20:10:40.557Z,57.61
2023-05-20T20:13:09.689Z,57.07
2023-05-20T20:15:40.213Z,57.45
2023-05-20T20:18:09.303Z,57.32
2023-05-20T20:20:40.053Z,57.61
2023-05-20T20:23:09.641Z,57.27
2023-05-20T20:25:39.864Z,57.64
2023-05-20T20:28:10.948Z,57.83
2023-05-20T20:30:41.365Z,57.04
2023-05-20T20:33:11.574Z,57.06
2023-05-20T20:35:40.343Z,57.25
2023-05-20T20:38:09.947Z,57.17
2023-05-20T20:40:41.524Z,56.65
2023-05-20T20:43:20.514Z,56.92
2023-05-20T20:45:53.151Z,56.82
2023-05-20T20:48:26.793Z,57.02
2023-05-20T20:50:56.437Z,57.17
2023-05-20T20:53:25.722Z,57.39
2023-05-20T20:55:54.576Z,58.08
2023-05-20T20:58:23.711Z,58.41
2023-05-20T21:00:54.272Z,58.07
2023-05-20T21:03:26.659Z,58.09
2023-05-20T21:05:55.530Z,58.42
2023-05-20T21:08:27.761Z,58.76
2023-05-20T21:10:59.214Z,59.55
2023-05-20T21:13:28.557Z,59.81
2023-05-20T21:15:58.881Z,60.27
2023-05-20T21:18:27.903Z,60.45
2023-05-20T21:20:57.154Z,61.38
2023-05-20T21:23:26.184Z,61.79
2023-05-20T21:25:55.041Z,61.48
2023-05-20T21:28:24.017Z,61.40
2023-05-20T21:30:52.769Z,61.86
2023-05-20T21:33:23.130Z,62.51
2023-05-20T21:35:51.957Z,62.72
2023-05-20T21:38:21.083Z,63.26
2023-05-20T21:40:49.945Z,62.81
2023-05-20T21:43:19.019Z,62.47
2023-05-20T21:45:47.754Z,62.71
2023-05-20T21:48:16.988Z,62.48
2023-05-20T21:50:47.086Z,62.72
2023-05-20T21:53:16.319Z,64.30
2023-05-20T21:55:45.023Z,64.03
2023-05-20T21:58:14.035Z,64.55
2023-05-20T22:00:43.099Z,65.36
2023-05-20T22:03:13.222Z,66.19
2023-05-20T22:05:46.177Z,66.07
2023-05-20T22:08:17.329Z,66.19
2023-05-20T22:10:47.039Z,66.66
2023-05-20T22:13:17.288Z,66.59
2023-05-20T22:15:46.011Z,67.21
2023-05-20T22:18:15.497Z,67.13
2023-05-20T22:20:44.372Z,66.91
2023-05-20T22:23:13.361Z,66.99
2023-05-20T22:25:43.497Z,67.27
2023-05-20T22:28:12.509Z,67.33
2023-05-20T22:30:41.257Z,67.64
2023-05-20T22:33:10.305Z,67.81
2023-05-20T22:35:38.974Z,68.19
2023-05-20T22:38:08.044Z,67.98
2023-05-20T22:40:36.775Z,68.13
2023-05-20T22:43:07.173Z,68.45
2023-05-20T22:45:36.360Z,69.04
2023-05-20T22:48:06.041Z,69.05
2023-05-20T22:50:35.417Z,68.71
2023-05-20T22:53:04.487Z,69.41
2023-05-20T22:55:33.305Z,69.96
2023-05-20T22:58:03.575Z,70.62
2023-05-20T23:00:35.956Z,70.07
2023-05-20T23:03:05.130Z,70.28
2023-05-20T23:05:34.182Z,69.91
2023-05-20T23:08:03.522Z,69.87
2023-05-20T23:10:32.728Z,70.42
2023-05-20T23:13:01.699Z,70.62
2023-05-20T23:15:31.161Z,71.37
2023-05-20T23:18:01.727Z,71.74
2023-05-20T23:20:30.523Z,71.24
2023-05-20T23:23:05.647Z,70.63
2023-05-20T23:25:39.718Z,70.24
2023-05-20T23:28:08.870Z,69.88
2023-05-20T23:30:37.615Z,69.97
2023-05-20T23:33:08.431Z,69.76
2023-05-20T23:35:37.411Z,69.01
2023-05-20T23:38:07.694Z,68.57
2023-05-20T23:40:36.513Z,68.61
2023-05-20T23:43:05.483Z,68.49
2023-05-20T23:45:34.508Z,68.35
2023-05-20T23:48:03.885Z,69.07
2023-05-20T23:50:34.020Z,68.85
2023-05-20T23:53:03.148Z,68.90
2023-05-20T23:55:31.889Z,68.48
2023-05-20T23:58:01.058Z,68.43
